Hoffman, Oklahoma
Current Conditions -  °F | °C
As of 4:35 PM on Monday 22 Dec 2014 (Local Time) from KOKM Reporting Station
Broken Clouds Broken Clouds  
Wind Chill: 55°   Ceiling: 3800
Heat Index: 55°   Visibility: 10mi
Dew Point: 44°   Wind: 10mph
Humidity: 67%   Direction: 280°W
Pressure: 29.58"   Gusts: NA
Location:  35.4729°N, 95.9709°W
Report Text: KOKM 222235Z AUTO 28009KT 10SM SCT033 BKN038 BKN047 13/07 A2958 RMK AO2 T01260066
Loading
Personal Weather Stations






























Interactive Weather Map New forecast layout! Learn more

10-Day Weather Forecast

Advertisements
Track Severe Weather on mobile